General Aviation Weather

Text Reports

Enter one or more of the following location identifiers separated by a space:

Zip Code, Four-Character ICAO or Three-Character IATA airport codes.

METAR - Aviation Routine Weather Report
KOXB - Ocean City, Maryland
Updated at 4:53 AM GMT on April 20, 2014 (12:53 AM EDT):
METAR KOXB 200453Z AUTO 01005KT 10SM CLR 09/05 A3029 RMK AO2 SLP257 T00890050 401500061 TSNO
TAF - Terminal Area Forecast
KOXB - Ocean City, Maryland
Updated at 4:53 AM GMT on April 20, 2014 (12:53 AM EDT):
No TAF is currently available for this location.
Decoded:
No decoded TAF is available.
PIREP - Pilot Weather Report
KOXB - Ocean City, Maryland
Updated at 4:53 AM GMT on April 20, 2014 (12:53 AM EDT):
No PIREP is currently available for this location.
AIRMET - Airmens Meteorological Information
KOXB - Ocean City, Maryland
Updated at 4:53 AM GMT on April 20, 2014 (12:53 AM EDT):
No AIRMET is currently available for this location.
SIGMET - Significant Meteorological Information
KOXB - Ocean City, Maryland
Updated at 4:53 AM GMT on April 20, 2014 (12:53 AM EDT):
No SIGMET is currently available for this location.
NOTAM - Notice to Airmen
KOXB - Ocean City, Maryland
Updated at 4:53 AM GMT on April 20, 2014 (12:53 AM EDT):
No NOTAM is currently available for this location.
Forecast Area
KOXB - Ocean City, Maryland
Updated at 4:53 AM GMT on April 20, 2014 (12:53 AM EDT):
No NOTAM is currently available for this location.
Aviation Weather Maps